createdAt,value
2022-12-18T00:00:14.165Z,43.81
2022-12-18T00:02:42.716Z,43.82
2022-12-18T00:05:12.675Z,43.96
2022-12-18T00:07:41.021Z,43.53
2022-12-18T00:10:10.474Z,43.54
2022-12-18T00:12:38.829Z,44.13
2022-12-18T00:15:08.432Z,43.78
2022-12-18T00:17:37.814Z,44.45
2022-12-18T00:20:07.747Z,44.12
2022-12-18T00:22:37.561Z,44.01
2022-12-18T00:25:06.786Z,43.90
2022-12-18T00:27:35.172Z,44.21
2022-12-18T00:30:03.625Z,44.43
2022-12-18T00:32:32.413Z,44.06
2022-12-18T00:35:00.774Z,44.45
2022-12-18T00:37:29.135Z,44.51
2022-12-18T00:39:59.257Z,44.53
2022-12-18T00:42:45.208Z,44.48
2022-12-18T00:45:13.706Z,44.58
2022-12-18T00:47:42.545Z,44.39
2022-12-18T00:50:11.983Z,44.66
2022-12-18T00:52:43.658Z,44.42
2022-12-18T00:55:14.190Z,44.52
2022-12-18T00:57:42.936Z,44.60
2022-12-18T01:00:15.910Z,44.60
2022-12-18T01:02:44.872Z,44.78
2022-12-18T01:05:15.545Z,44.59
2022-12-18T01:07:44.077Z,44.81
2022-12-18T01:10:15.251Z,44.69
2022-12-18T01:12:43.813Z,44.84
2022-12-18T01:15:14.367Z,44.91
2022-12-18T01:17:43.029Z,44.75
2022-12-18T01:20:13.786Z,45.07
2022-12-18T01:22:42.477Z,44.97
2022-12-18T01:25:13.012Z,44.70
2022-12-18T01:27:41.378Z,44.96
2022-12-18T01:30:11.201Z,45.02
2022-12-18T01:32:40.238Z,44.97
2022-12-18T01:35:10.313Z,45.06
2022-12-18T01:37:38.712Z,44.92
2022-12-18T01:40:09.597Z,45.10
2022-12-18T01:42:39.346Z,45.16
2022-12-18T01:45:27.570Z,45.08
2022-12-18T01:47:59.992Z,45.25
2022-12-18T01:50:34.808Z,45.32
2022-12-18T01:53:09.551Z,45.29
2022-12-18T01:55:43.459Z,45.11
2022-12-18T01:58:13.328Z,45.47
2022-12-18T02:00:41.896Z,45.14
2022-12-18T02:03:10.435Z,45.35
2022-12-18T02:05:47.031Z,45.47
2022-12-18T02:08:23.094Z,45.22
2022-12-18T02:11:02.390Z,45.80
2022-12-18T02:13:42.742Z,45.76
2022-12-18T02:16:22.533Z,45.61
2022-12-18T02:18:58.087Z,45.23
2022-12-18T02:21:38.956Z,45.73
2022-12-18T02:24:26.397Z,45.50
2022-12-18T02:26:59.819Z,45.49
2022-12-18T02:29:34.062Z,45.63
2022-12-18T02:32:08.418Z,45.55
2022-12-18T02:34:41.450Z,45.54
2022-12-18T02:37:15.185Z,45.75
2022-12-18T02:39:46.672Z,45.86
2022-12-18T02:42:17.073Z,45.89
2022-12-18T02:44:47.176Z,45.79
2022-12-18T02:47:19.708Z,45.75
2022-12-18T02:50:04.513Z,46.21
2022-12-18T02:52:41.333Z,45.62
2022-12-18T02:55:25.666Z,46.23
2022-12-18T02:58:00.270Z,46.27
2022-12-18T03:00:37.291Z,45.75
2022-12-18T03:03:14.535Z,46.06
2022-12-18T03:05:49.593Z,45.95
2022-12-18T03:08:23.761Z,45.98
2022-12-18T03:10:56.687Z,46.00
2022-12-18T03:13:33.682Z,46.29
2022-12-18T03:16:04.570Z,46.04
2022-12-18T03:18:38.616Z,46.26
2022-12-18T03:21:10.101Z,45.88
2022-12-18T03:23:47.003Z,45.88
2022-12-18T03:26:21.543Z,45.89
2022-12-18T03:28:59.381Z,46.03
2022-12-18T03:31:31.042Z,45.81
2022-12-18T03:34:03.480Z,46.18
2022-12-18T03:36:34.983Z,46.22
2022-12-18T03:39:03.377Z,46.21
2022-12-18T03:41:37.853Z,46.07
2022-12-18T03:44:16.048Z,46.32
2022-12-18T03:46:56.741Z,46.33
2022-12-18T03:49:34.607Z,46.14
2022-12-18T03:52:06.847Z,46.37
2022-12-18T03:54:37.392Z,46.05
2022-12-18T03:57:12.019Z,46.16
2022-12-18T03:59:42.915Z,46.34
2022-12-18T04:02:11.843Z,46.40
2022-12-18T04:04:42.261Z,46.19
2022-12-18T04:07:11.405Z,46.55
2022-12-18T04:09:43.820Z,46.02
2022-12-18T04:12:12.204Z,46.57
2022-12-18T04:14:42.010Z,46.36
2022-12-18T04:17:10.375Z,46.26
2022-12-18T04:19:38.716Z,45.93
2022-12-18T04:22:07.069Z,46.48
2022-12-18T04:24:35.580Z,45.99
2022-12-18T04:27:04.017Z,46.12
2022-12-18T04:29:32.957Z,46.37
2022-12-18T04:32:02.760Z,45.75
2022-12-18T04:34:31.628Z,46.45
2022-12-18T04:36:59.972Z,46.52
2022-12-18T04:39:28.411Z,45.91
2022-12-18T04:41:56.763Z,46.58
2022-12-18T04:44:25.588Z,46.26
2022-12-18T04:46:53.948Z,46.71
2022-12-18T04:49:24.327Z,46.38
2022-12-18T04:51:54.020Z,46.05
2022-12-18T04:54:22.713Z,46.76
2022-12-18T04:56:51.074Z,46.78
2022-12-18T04:59:19.402Z,46.74
2022-12-18T05:01:48.118Z,46.34
2022-12-18T05:04:16.642Z,46.24
2022-12-18T05:06:47.195Z,47.02
2022-12-18T05:09:16.358Z,46.93
2022-12-18T05:11:44.915Z,46.43
2022-12-18T05:14:14.751Z,46.79
2022-12-18T05:16:43.297Z,47.02
2022-12-18T05:19:12.507Z,46.27
2022-12-18T05:21:41.498Z,46.95
2022-12-18T05:24:11.240Z,46.93
2022-12-18T05:26:39.649Z,47.27
2022-12-18T05:29:07.957Z,46.68
2022-12-18T05:31:39.820Z,46.46
2022-12-18T05:34:08.502Z,46.84
2022-12-18T05:36:36.878Z,46.83
2022-12-18T05:39:05.632Z,47.02
2022-12-18T05:41:35.882Z,46.91
2022-12-18T05:44:04.308Z,46.69
2022-12-18T05:46:34.371Z,47.10
2022-12-18T05:49:03.100Z,46.53
2022-12-18T05:51:32.496Z,46.45
2022-12-18T05:54:00.828Z,46.84
2022-12-18T05:56:29.210Z,47.19
2022-12-18T05:58:58.922Z,46.62
2022-12-18T06:01:29.364Z,47.30
2022-12-18T06:03:58.067Z,47.06
2022-12-18T06:06:29.584Z,47.26
2022-12-18T06:08:59.118Z,46.65
2022-12-18T06:11:29.012Z,46.70
2022-12-18T06:14:00.690Z,47.39
2022-12-18T06:16:30.707Z,47.01
2022-12-18T06:19:00.037Z,46.92
2022-12-18T06:21:29.159Z,47.21
2022-12-18T06:23:57.764Z,47.46
2022-12-18T06:26:28.589Z,47.42
2022-12-18T06:28:58.465Z,47.13
2022-12-18T06:31:27.622Z,47.41
2022-12-18T06:33:56.208Z,47.37
2022-12-18T06:36:24.676Z,47.41
2022-12-18T06:38:53.047Z,47.67
2022-12-18T06:41:23.896Z,47.21
2022-12-18T06:43:56.820Z,47.09
2022-12-18T06:46:29.316Z,47.67
2022-12-18T06:48:57.719Z,47.01
2022-12-18T06:51:28.777Z,47.56
2022-12-18T06:53:57.200Z,47.41
2022-12-18T06:56:25.560Z,47.08
2022-12-18T06:58:54.025Z,47.29
2022-12-18T07:01:23.131Z,47.37
2022-12-18T07:03:56.757Z,47.84
2022-12-18T07:06:27.941Z,47.86
2022-12-18T07:08:56.927Z,47.96
2022-12-18T07:11:25.778Z,47.22
2022-12-18T07:13:55.562Z,47.82
2022-12-18T07:16:25.881Z,47.65
2022-12-18T07:18:57.536Z,47.75
2022-12-18T07:21:26.983Z,47.14
2022-12-18T07:23:55.479Z,47.43
2022-12-18T07:26:24.487Z,47.13
2022-12-18T07:28:53.023Z,47.66
2022-12-18T07:31:23.469Z,47.31
2022-12-18T07:33:52.865Z,47.78
2022-12-18T07:36:26.951Z,47.20
2022-12-18T07:38:55.322Z,47.13
2022-12-18T07:41:24.038Z,47.14
2022-12-18T07:43:52.369Z,47.25
2022-12-18T07:46:22.080Z,47.84
2022-12-18T07:48:50.657Z,47.20
2022-12-18T07:51:20.979Z,47.28
2022-12-18T07:53:52.564Z,47.55
2022-12-18T07:56:27.869Z,47.13
2022-12-18T07:58:57.045Z,47.26
2022-12-18T08:01:25.858Z,47.50
2022-12-18T08:03:54.421Z,47.64
2022-12-18T08:06:24.884Z,47.65
2022-12-18T08:08:54.977Z,47.22
2022-12-18T08:11:24.527Z,47.41
2022-12-18T08:13:53.266Z,47.34
2022-12-18T08:16:22.651Z,47.33
2022-12-18T08:18:51.227Z,47.40
2022-12-18T08:21:24.388Z,47.23
2022-12-18T08:23:54.643Z,47.53
2022-12-18T08:26:24.252Z,47.62
2022-12-18T08:28:53.404Z,47.28
2022-12-18T08:31:22.161Z,47.26
2022-12-18T08:33:53.292Z,47.31
2022-12-18T08:36:25.000Z,47.19
2022-12-18T08:38:54.885Z,46.98
2022-12-18T08:41:23.661Z,46.98
2022-12-18T08:44:09.342Z,47.17
2022-12-18T08:46:40.190Z,47.28
2022-12-18T08:49:10.565Z,47.33
2022-12-18T08:51:41.090Z,47.31
2022-12-18T08:54:09.737Z,47.33
2022-12-18T08:56:38.120Z,47.19
2022-12-18T08:59:06.517Z,47.38
2022-12-18T09:01:35.328Z,47.28
2022-12-18T09:04:04.012Z,47.12
2022-12-18T09:06:33.130Z,46.84
2022-12-18T09:09:02.943Z,47.02
2022-12-18T09:11:33.785Z,46.76
2022-12-18T09:14:03.672Z,47.35
2022-12-18T09:16:35.947Z,46.67
2022-12-18T09:19:07.421Z,46.48
2022-12-18T09:21:37.616Z,46.78
2022-12-18T09:24:09.253Z,46.83
2022-12-18T09:26:38.145Z,47.08
2022-12-18T09:29:08.432Z,46.48
2022-12-18T09:31:37.821Z,46.83
2022-12-18T09:34:06.257Z,46.79
2022-12-18T09:36:34.700Z,46.38
2022-12-18T09:39:07.799Z,46.38
2022-12-18T09:41:45.598Z,46.24
2022-12-18T09:44:24.524Z,45.83
2022-12-18T09:47:05.465Z,46.53
2022-12-18T09:49:38.763Z,46.05
2022-12-18T09:52:16.024Z,46.30
2022-12-18T09:54:49.710Z,45.70
2022-12-18T09:57:23.878Z,46.03
2022-12-18T09:59:58.691Z,46.31
2022-12-18T10:02:32.197Z,46.19
2022-12-18T10:05:08.925Z,45.79
2022-12-18T10:07:59.751Z,45.40
2022-12-18T10:10:42.321Z,45.48
2022-12-18T10:13:25.284Z,45.58
2022-12-18T10:16:11.891Z,45.52
2022-12-18T10:19:02.629Z,45.45
2022-12-18T10:21:41.773Z,45.89
2022-12-18T10:24:23.727Z,46.23
2022-12-18T10:26:54.039Z,45.72
2022-12-18T10:29:24.466Z,45.74
2022-12-18T10:31:52.818Z,45.28
2022-12-18T10:34:21.236Z,45.38
2022-12-18T10:36:50.480Z,45.30
2022-12-18T10:39:23.295Z,45.33
2022-12-18T10:41:51.687Z,44.87
2022-12-18T10:44:22.445Z,45.75
2022-12-18T10:46:57.131Z,46.02
2022-12-18T10:49:29.068Z,45.30
2022-12-18T10:52:14.411Z,44.89
2022-12-18T10:54:49.915Z,44.81
2022-12-18T10:57:34.718Z,43.84
2022-12-18T11:00:31.624Z,44.18
2022-12-18T11:03:01.615Z,44.88
2022-12-18T11:05:33.246Z,44.72
2022-12-18T11:08:03.298Z,44.50
2022-12-18T11:10:35.725Z,44.41
2022-12-18T11:13:18.906Z,43.99
2022-12-18T11:15:47.989Z,43.83
2022-12-18T11:18:27.366Z,44.30
2022-12-18T11:20:59.606Z,44.06
2022-12-18T11:23:29.360Z,44.65
2022-12-18T11:26:01.494Z,43.99
2022-12-18T11:28:40.320Z,43.99
2022-12-18T11:31:32.410Z,44.56
2022-12-18T11:34:28.521Z,44.31
2022-12-18T11:37:00.651Z,44.68
2022-12-18T11:39:39.614Z,44.01
2022-12-18T11:42:16.490Z,44.23
2022-12-18T11:44:52.038Z,43.94
2022-12-18T11:47:30.756Z,43.61
2022-12-18T11:50:05.107Z,44.57
2022-12-18T11:52:40.332Z,43.63
2022-12-18T11:55:16.254Z,43.66
2022-12-18T11:57:55.039Z,44.29
2022-12-18T12:00:25.303Z,43.63
2022-12-18T12:03:42.985Z,44.43
2022-12-18T12:06:23.953Z,43.81
2022-12-18T12:09:05.009Z,43.81
2022-12-18T12:11:45.972Z,44.09
2022-12-18T12:14:37.623Z,43.82
2022-12-18T12:17:17.339Z,44.46
2022-12-18T12:19:58.525Z,43.99
2022-12-18T12:22:40.965Z,43.83
2022-12-18T12:25:31.672Z,43.70
2022-12-18T12:28:17.577Z,44.36
2022-12-18T12:31:03.869Z,43.72
2022-12-18T12:33:44.653Z,43.64
2022-12-18T12:36:24.291Z,43.29
2022-12-18T12:39:00.876Z,43.53
2022-12-18T12:41:53.780Z,43.57
2022-12-18T12:44:27.771Z,43.51
2022-12-18T12:47:04.422Z,43.36
2022-12-18T12:49:40.410Z,43.59
2022-12-18T12:52:17.884Z,43.25
2022-12-18T12:54:49.258Z,43.53
2022-12-18T12:57:24.660Z,43.37
2022-12-18T13:00:02.764Z,43.35
2022-12-18T13:02:40.255Z,43.33
2022-12-18T13:05:20.179Z,42.93
2022-12-18T13:07:58.546Z,43.70
2022-12-18T13:10:36.726Z,43.63
2022-12-18T13:13:09.374Z,43.73
2022-12-18T13:15:46.892Z,43.33
2022-12-18T13:18:23.206Z,43.62
2022-12-18T13:21:03.882Z,43.25
2022-12-18T13:23:38.762Z,43.37
2022-12-18T13:26:36.942Z,43.45
2022-12-18T13:29:07.301Z,43.13
2022-12-18T13:32:03.434Z,43.33
2022-12-18T13:34:33.537Z,42.87
2022-12-18T13:37:41.953Z,43.04
2022-12-18T13:40:57.364Z,43.53
2022-12-18T13:43:42.308Z,43.26
2022-12-18T13:46:24.164Z,43.89
2022-12-18T13:49:03.995Z,44.09
2022-12-18T13:51:36.377Z,43.82
2022-12-18T13:54:19.876Z,43.79
2022-12-18T13:56:50.688Z,43.96
2022-12-18T13:59:25.015Z,43.33
2022-12-18T14:01:57.715Z,43.29
2022-12-18T14:04:30.260Z,44.28
2022-12-18T14:07:05.007Z,43.84
2022-12-18T14:09:40.483Z,43.41
2022-12-18T14:12:35.735Z,43.92
2022-12-18T14:15:09.363Z,44.12
2022-12-18T14:17:39.090Z,44.27
2022-12-18T14:20:16.782Z,43.95
2022-12-18T14:22:48.136Z,43.51
2022-12-18T14:25:21.050Z,43.71
2022-12-18T14:27:53.634Z,43.88
2022-12-18T14:30:32.589Z,43.98
2022-12-18T14:33:06.743Z,43.95
2022-12-18T14:35:37.098Z,44.19
2022-12-18T14:38:25.395Z,43.49
2022-12-18T14:41:02.007Z,44.31
2022-12-18T14:43:34.041Z,44.36
2022-12-18T14:46:05.800Z,44.04
2022-12-18T14:48:40.649Z,43.97
2022-12-18T14:51:18.404Z,44.04
2022-12-18T14:53:54.322Z,43.82
2022-12-18T14:56:26.193Z,44.21
2022-12-18T14:58:58.403Z,44.23
2022-12-18T15:01:32.153Z,44.31
2022-12-18T15:04:03.371Z,44.49
2022-12-18T15:06:36.276Z,44.14
2022-12-18T15:09:22.551Z,44.61
2022-12-18T15:11:57.737Z,44.02
2022-12-18T15:14:42.765Z,44.27
2022-12-18T15:17:24.557Z,44.42
2022-12-18T15:20:03.249Z,44.25
2022-12-18T15:22:37.920Z,44.10
2022-12-18T15:25:37.941Z,44.44
2022-12-18T15:28:21.868Z,44.49
2022-12-18T15:31:27.443Z,44.31
2022-12-18T15:34:21.847Z,44.25
2022-12-18T15:36:53.262Z,44.63
2022-12-18T15:39:23.159Z,44.96
2022-12-18T15:42:10.176Z,44.87
2022-12-18T15:44:40.788Z,44.78
2022-12-18T15:47:15.580Z,45.18
2022-12-18T15:49:47.340Z,44.83
2022-12-18T15:52:27.395Z,45.20
2022-12-18T15:55:14.028Z,44.52
2022-12-18T15:57:44.473Z,45.25
2022-12-18T16:00:16.702Z,44.68
2022-12-18T16:02:47.567Z,44.71
2022-12-18T16:05:21.616Z,45.13
2022-12-18T16:07:54.313Z,45.27
2022-12-18T16:10:25.091Z,44.81
2022-12-18T16:12:55.504Z,44.79
2022-12-18T16:15:26.532Z,45.41
2022-12-18T16:17:57.308Z,44.93
2022-12-18T16:20:28.778Z,44.98
2022-12-18T16:22:59.525Z,44.76
2022-12-18T16:25:31.748Z,44.48
2022-12-18T16:28:02.194Z,44.77
2022-12-18T16:30:38.143Z,44.99
2022-12-18T16:33:08.646Z,44.84
2022-12-18T16:35:43.027Z,45.15
2022-12-18T16:38:13.254Z,45.49
2022-12-18T16:41:07.148Z,45.06
2022-12-18T16:43:36.833Z,45.08
2022-12-18T16:46:06.107Z,45.01
2022-12-18T16:48:35.945Z,45.30
2022-12-18T16:51:10.715Z,45.26
2022-12-18T16:53:40.882Z,44.98
2022-12-18T16:56:11.771Z,45.02
2022-12-18T16:58:41.296Z,45.43
2022-12-18T17:01:13.759Z,45.29
2022-12-18T17:03:45.252Z,44.89
2022-12-18T17:06:18.554Z,45.14
2022-12-18T17:08:49.962Z,45.17
2022-12-18T17:11:20.710Z,45.54
2022-12-18T17:13:50.313Z,45.11
2022-12-18T17:16:21.711Z,45.29
2022-12-18T17:18:51.669Z,45.21
2022-12-18T17:21:26.170Z,45.90
2022-12-18T17:23:56.784Z,45.21
2022-12-18T17:26:27.517Z,45.68
2022-12-18T17:28:59.742Z,45.82
2022-12-18T17:31:32.002Z,45.26
2022-12-18T17:34:04.852Z,45.73
2022-12-18T17:36:36.937Z,45.37
2022-12-18T17:39:19.254Z,45.66
2022-12-18T17:41:50.678Z,45.79
2022-12-18T17:44:23.967Z,45.37
2022-12-18T17:46:53.764Z,45.94
2022-12-18T17:49:23.609Z,45.59
2022-12-18T17:51:57.530Z,46.13
2022-12-18T17:54:27.760Z,46.02
2022-12-18T17:56:58.094Z,45.70
2022-12-18T17:59:30.552Z,45.63
2022-12-18T18:02:00.643Z,45.50
2022-12-18T18:04:30.679Z,46.01
2022-12-18T18:07:08.561Z,45.76
2022-12-18T18:09:38.434Z,45.41
2022-12-18T18:12:26.155Z,45.57
2022-12-18T18:14:56.968Z,45.66
2022-12-18T18:17:26.720Z,46.25
2022-12-18T18:19:57.402Z,46.07
2022-12-18T18:22:28.643Z,46.33
2022-12-18T18:24:58.095Z,45.91
2022-12-18T18:27:33.969Z,45.50
2022-12-18T18:30:10.212Z,45.42
2022-12-18T18:32:40.400Z,45.96
2022-12-18T18:35:19.456Z,46.14
2022-12-18T18:38:05.142Z,46.13
2022-12-18T18:40:35.415Z,46.07
2022-12-18T18:43:07.323Z,46.26
2022-12-18T18:45:37.220Z,46.08
2022-12-18T18:48:07.876Z,46.46
2022-12-18T18:50:38.818Z,45.87
2022-12-18T18:53:11.102Z,45.59
2022-12-18T18:55:41.041Z,45.73
2022-12-18T18:58:11.785Z,46.41
2022-12-18T19:00:41.685Z,45.67
2022-12-18T19:03:11.898Z,46.37
2022-12-18T19:05:47.615Z,46.44
2022-12-18T19:08:19.972Z,45.29
2022-12-18T19:10:54.523Z,46.38
2022-12-18T19:13:30.667Z,45.71
2022-12-18T19:16:07.551Z,46.42
2022-12-18T19:18:39.182Z,45.87
2022-12-18T19:21:09.712Z,46.31
2022-12-18T19:23:40.744Z,45.93
2022-12-18T19:26:28.844Z,46.17
2022-12-18T19:29:04.740Z,45.76
2022-12-18T19:31:36.675Z,46.52
2022-12-18T19:34:08.207Z,46.41
2022-12-18T19:36:41.022Z,45.84
2022-12-18T19:39:15.748Z,46.27
2022-12-18T19:41:45.704Z,46.38
2022-12-18T19:44:18.574Z,45.88
2022-12-18T19:46:51.941Z,45.87
2022-12-18T19:49:27.065Z,46.15
2022-12-18T19:51:59.012Z,45.86
2022-12-18T19:54:31.442Z,46.26
2022-12-18T19:57:02.108Z,46.32
2022-12-18T19:59:32.123Z,46.28
2022-12-18T20:02:02.305Z,45.97
2022-12-18T20:04:32.374Z,46.44
2022-12-18T20:07:02.672Z,46.10
2022-12-18T20:09:34.486Z,46.19
2022-12-18T20:12:04.495Z,46.05
2022-12-18T20:14:34.404Z,45.82
2022-12-18T20:17:03.879Z,46.01
2022-12-18T20:20:47.286Z,46.17
2022-12-18T20:22:23.548Z,46.60
2022-12-18T20:24:55.244Z,46.09
2022-12-18T20:27:24.972Z,45.98
2022-12-18T20:29:56.924Z,46.70
2022-12-18T20:32:35.380Z,45.88
2022-12-18T20:35:07.270Z,46.45
2022-12-18T20:37:36.561Z,45.71
2022-12-18T20:40:12.790Z,46.26
2022-12-18T20:42:43.274Z,46.08
2022-12-18T20:45:12.245Z,46.42
2022-12-18T20:47:42.061Z,46.71
2022-12-18T20:50:11.688Z,46.49
2022-12-18T20:52:40.900Z,46.95
2022-12-18T20:55:11.646Z,46.24
2022-12-18T20:57:40.268Z,46.19
2022-12-18T21:00:12.997Z,46.27
2022-12-18T21:02:45.481Z,45.89
2022-12-18T21:05:14.866Z,46.32
2022-12-18T21:07:44.320Z,46.64
2022-12-18T21:10:14.946Z,46.19
2022-12-18T21:12:58.915Z,46.68
2022-12-18T21:15:32.384Z,46.70
2022-12-18T21:18:01.080Z,46.27
2022-12-18T21:20:29.757Z,46.71
2022-12-18T21:23:02.820Z,46.19
2022-12-18T21:25:47.580Z,46.51
2022-12-18T21:28:20.256Z,46.14
2022-12-18T21:30:49.249Z,46.62
2022-12-18T21:33:17.640Z,46.88
2022-12-18T21:35:46.067Z,45.86
2022-12-18T21:38:14.525Z,46.65
2022-12-18T21:40:43.087Z,46.52
2022-12-18T21:43:30.218Z,45.95
2022-12-18T21:45:58.644Z,45.90
2022-12-18T21:48:28.178Z,45.99
2022-12-18T21:50:56.572Z,46.62
2022-12-18T21:53:25.015Z,46.27
2022-12-18T21:55:59.712Z,46.68
2022-12-18T21:58:29.520Z,46.75
2022-12-18T22:00:58.017Z,46.55
2022-12-18T22:03:26.598Z,46.67
2022-12-18T22:06:08.880Z,46.37
2022-12-18T22:08:42.588Z,46.05
2022-12-18T22:11:13.791Z,46.71
2022-12-18T22:13:44.297Z,46.51
2022-12-18T22:16:12.771Z,46.81
2022-12-18T22:18:41.219Z,46.11
2022-12-18T22:21:27.136Z,45.59
2022-12-18T22:23:58.619Z,46.58
2022-12-18T22:26:29.086Z,45.99
2022-12-18T22:29:16.132Z,46.28
2022-12-18T22:31:44.654Z,46.24
2022-12-18T22:34:13.270Z,46.87
2022-12-18T22:36:44.707Z,46.61
2022-12-18T22:39:15.913Z,46.66
2022-12-18T22:41:45.321Z,46.38
2022-12-18T22:44:16.424Z,46.39
2022-12-18T22:46:51.394Z,46.84
2022-12-18T22:49:35.155Z,46.58
2022-12-18T22:52:04.369Z,46.97
2022-12-18T22:54:32.883Z,46.84
2022-12-18T22:57:01.266Z,46.99
2022-12-18T22:59:30.974Z,46.59
2022-12-18T23:01:59.682Z,47.08
2022-12-18T23:04:31.284Z,46.69
2022-12-18T23:07:06.054Z,47.14
2022-12-18T23:09:35.179Z,47.12
2022-12-18T23:12:03.809Z,47.21
2022-12-18T23:14:33.564Z,47.30
2022-12-18T23:17:01.919Z,46.94
2022-12-18T23:19:30.283Z,46.94
2022-12-18T23:21:59.136Z,47.09
2022-12-18T23:24:27.866Z,47.07
2022-12-18T23:26:59.266Z,46.98
2022-12-18T23:29:27.877Z,46.97
2022-12-18T23:31:57.673Z,47.50
2022-12-18T23:34:26.138Z,47.11
2022-12-18T23:36:56.197Z,47.11
2022-12-18T23:39:29.352Z,47.15
2022-12-18T23:41:58.755Z,47.36
2022-12-18T23:44:27.502Z,47.38
2022-12-18T23:46:57.353Z,47.41
2022-12-18T23:49:25.809Z,47.44
2022-12-18T23:51:55.655Z,47.51
2022-12-18T23:54:32.869Z,47.47
2022-12-18T23:57:02.567Z,47.49
2022-12-18T23:59:30.941Z,47.22
